Time;durP1;ratioP1;P1;durP2;ratioP2;P2;SDS_P1;SDS_P2;PMS_P1;PMS_P2;Temp;Humidity;BMP_temperature;BMP_pressure;BME280_temperature;BME280_humidity;BME280_pressure;Samples;Min_cycle;Max_cycle;Signal;HPM_P1;HPM_P2
2022/08/09 00:00:58;;;;;;;3.20;2.90;;;;;;;;;;5092635;28;20446;-79
2022/08/09 00:03:25;;;;;;;3.80;2.87;;;;;;;;;;5091181;28;20447;-78
2022/08/09 00:05:53;;;;;;;3.87;2.63;;;;;;;;;;5092201;28;20443;-78
2022/08/09 00:08:20;;;;;;;3.47;3.17;;;;;;;;;;5093615;28;20850;-77
2022/08/09 00:10:47;;;;;;;3.80;2.90;;;;;;;;;;5093537;28;20712;-77
2022/08/09 00:13:15;;;;;;;3.40;3.10;;;;;;;;;;5093508;28;20443;-80
2022/08/09 00:15:43;;;;;;;3.30;2.97;;;;;;;;;;5093930;28;20545;-77
2022/08/09 00:18:10;;;;;;;4.33;3.13;;;;;;;;;;5094320;28;20735;-79
2022/08/09 00:20:37;;;;;;;3.30;3.00;;;;;;;;;;5095691;28;20795;-79
2022/08/09 00:23:04;;;;;;;4.53;2.83;;;;;;;;;;5093636;28;20432;-79
2022/08/09 00:25:31;;;;;;;3.77;3.00;;;;;;;;;;5090729;28;20459;-78
2022/08/09 00:27:58;;;;;;;4.30;3.43;;;;;;;;;;5091453;28;20899;-77
2022/08/09 00:30:27;;;;;;;3.40;2.87;;;;;;;;;;5093073;28;20471;-77
2022/08/09 00:32:54;;;;;;;3.50;3.03;;;;;;;;;;5093197;28;20443;-79
2022/08/09 00:35:22;;;;;;;3.70;3.10;;;;;;;;;;5093199;28;20436;-77
2022/08/09 00:37:49;;;;;;;4.47;3.20;;;;;;;;;;5092233;28;20596;-79
2022/08/09 00:40:17;;;;;;;3.30;2.70;;;;;;;;;;5093757;28;20463;-78
2022/08/09 00:42:44;;;;;;;3.90;3.00;;;;;;;;;;5094991;28;20451;-79
2022/08/09 00:45:12;;;;;;;3.67;3.23;;;;;;;;;;5093831;28;20524;-78
2022/08/09 00:47:40;;;;;;;3.30;3.00;;;;;;;;;;5090287;28;20471;-79
2022/08/09 00:50:08;;;;;;;3.40;3.03;;;;;;;;;;5091046;28;20936;-79
2022/08/09 00:52:35;;;;;;;3.47;2.63;;;;;;;;;;5092700;28;20837;-78
2022/08/09 00:55:03;;;;;;;2.93;2.70;;;;;;;;;;5092569;28;20435;-80
2022/08/09 00:57:31;;;;;;;3.40;2.60;;;;;;;;;;5092494;28;20538;-79
2022/08/09 00:59:58;;;;;;;8.33;3.20;;;;;;;;;;5092026;28;20488;-78
2022/08/09 01:02:28;;;;;;;3.50;3.20;;;;;;;;;;5093355;28;20876;-79
2022/08/09 01:04:59;;;;;;;5.90;3.80;;;;;;;;;;5095478;28;20449;-79
2022/08/09 01:07:31;;;;;;;3.00;2.80;;;;;;;;;;5092783;28;20537;-79
2022/08/09 01:10:01;;;;;;;3.37;3.00;;;;;;;;;;5089935;28;20435;-79
2022/08/09 01:12:31;;;;;;;4.33;3.33;;;;;;;;;;5090843;28;20428;-79
2022/08/09 01:15:01;;;;;;;3.67;3.17;;;;;;;;;;5092392;28;20443;-80
2022/08/09 01:17:31;;;;;;;4.87;3.67;;;;;;;;;;5092663;28;20448;-77
2022/08/09 01:20:01;;;;;;;4.80;3.43;;;;;;;;;;5091066;28;20439;-77
2022/08/09 01:22:37;;;;;;;3.93;3.10;;;;;;;;;;5091476;28;20454;-78
2022/08/09 01:25:13;;;;;;;4.77;3.70;;;;;;;;;;5091919;28;20474;-77
2022/08/09 01:27:42;;;;;;;3.23;2.83;;;;;;;;;;5094149;28;20863;-77
2022/08/09 01:30:10;;;;;;;3.33;2.73;;;;;;;;;;5086724;28;20473;-78
2022/08/09 01:32:38;;;;;;;3.93;3.03;;;;;;;;;;5085741;28;20427;-80
2022/08/09 01:35:07;;;;;;;3.00;2.60;;;;;;;;;;5090915;28;20443;-78
2022/08/09 01:37:35;;;;;;;4.57;3.20;;;;;;;;;;5091953;28;20952;-79
2022/08/09 01:40:03;;;;;;;3.63;3.23;;;;;;;;;;5091999;28;20443;-79
2022/08/09 01:42:32;;;;;;;3.57;3.23;;;;;;;;;;5092142;28;20443;-79
2022/08/09 01:45:01;;;;;;;4.80;2.60;;;;;;;;;;5091868;28;20443;-79
2022/08/09 01:47:28;;;;;;;4.30;3.20;;;;;;;;;;5092772;28;20979;-78
2022/08/09 01:49:56;;;;;;;4.30;3.20;;;;;;;;;;5094011;28;20446;-78
2022/08/09 01:52:24;;;;;;;3.33;3.00;;;;;;;;;;5091045;28;20453;-81
2022/08/09 01:54:54;;;;;;;5.50;2.93;;;;;;;;;;5088696;28;20431;-79
2022/08/09 01:57:24;;;;;;;3.50;3.10;;;;;;;;;;5089256;28;20451;-79
2022/08/09 01:59:54;;;;;;;7.70;3.20;;;;;;;;;;5091248;28;20806;-78
2022/08/09 02:02:24;;;;;;;4.20;3.30;;;;;;;;;;5090309;28;20993;-78
2022/08/09 02:04:52;;;;;;;3.73;3.07;;;;;;;;;;5092139;28;20452;-77
2022/08/09 02:07:22;;;;;;;4.03;3.30;;;;;;;;;;5091458;28;20507;-78
2022/08/09 02:09:51;;;;;;;5.07;3.37;;;;;;;;;;5093467;28;20459;-76
2022/08/09 02:12:19;;;;;;;3.93;3.20;;;;;;;;;;5093644;28;20443;-77
2022/08/09 02:14:48;;;;;;;4.73;3.20;;;;;;;;;;5090699;28;20438;-77
2022/08/09 02:17:16;;;;;;;4.10;3.23;;;;;;;;;;5089073;28;20455;-78
2022/08/09 02:19:48;;;;;;;5.03;3.20;;;;;;;;;;5090852;28;20910;-79
2022/08/09 02:22:16;;;;;;;8.13;2.83;;;;;;;;;;5091121;28;20454;-79
2022/08/09 02:24:46;;;;;;;3.77;3.33;;;;;;;;;;5093827;28;20483;-79
2022/08/09 02:27:18;;;;;;;3.30;2.70;;;;;;;;;;5095015;28;20453;-77
2022/08/09 02:29:46;;;;;;;3.40;3.10;;;;;;;;;;5095152;28;20442;-79
2022/08/09 02:32:14;;;;;;;4.00;3.37;;;;;;;;;;5097570;28;20417;-78
2022/08/09 02:34:43;;;;;;;3.70;3.03;;;;;;;;;;5097945;28;20453;-80
2022/08/09 02:37:14;;;;;;;4.97;3.40;;;;;;;;;;5094139;28;20425;-79
2022/08/09 02:39:42;;;;;;;3.83;3.33;;;;;;;;;;5093069;28;20416;-78
2022/08/09 02:42:15;;;;;;;3.30;3.00;;;;;;;;;;5093491;28;20464;-79
2022/08/09 02:44:45;;;;;;;3.70;3.00;;;;;;;;;;5095071;28;20478;-79
2022/08/09 02:47:13;;;;;;;3.20;2.90;;;;;;;;;;5095440;28;20483;-78
2022/08/09 02:49:42;;;;;;;3.77;3.20;;;;;;;;;;5095568;28;20425;-79
2022/08/09 02:52:13;;;;;;;2.63;2.40;;;;;;;;;;5094443;28;20931;-79
2022/08/09 02:54:41;;;;;;;3.50;3.00;;;;;;;;;;5097297;28;20527;-77
2022/08/09 02:57:09;;;;;;;3.30;2.90;;;;;;;;;;5097351;28;20463;-79
2022/08/09 02:59:37;;;;;;;4.53;2.90;;;;;;;;;;5093553;28;20798;-79
2022/08/09 03:02:05;;;;;;;4.13;3.10;;;;;;;;;;5092439;28;20420;-79
2022/08/09 03:04:33;;;;;;;5.80;3.40;;;;;;;;;;5094071;28;20886;-78
2022/08/09 03:07:01;;;;;;;7.07;3.47;;;;;;;;;;5094414;28;20973;-78
2022/08/09 03:09:30;;;;;;;4.10;3.17;;;;;;;;;;5095198;28;20524;-78
2022/08/09 03:11:58;;;;;;;4.40;2.80;;;;;;;;;;5095340;28;20516;-77
2022/08/09 03:14:25;;;;;;;3.83;3.30;;;;;;;;;;5094169;28;20787;-77
2022/08/09 03:16:53;;;;;;;4.43;3.57;;;;;;;;;;5096767;28;20441;-78
2022/08/09 03:19:20;;;;;;;3.73;3.33;;;;;;;;;;5097203;28;20418;-78
2022/08/09 03:21:49;;;;;;;3.53;3.23;;;;;;;;;;5093495;28;20413;-78
2022/08/09 03:24:16;;;;;;;4.37;3.13;;;;;;;;;;5091748;28;20440;-77
2022/08/09 03:26:46;;;;;;;3.50;3.17;;;;;;;;;;5093888;28;20854;-77
2022/08/09 03:29:14;;;;;;;4.70;3.30;;;;;;;;;;5094312;28;20441;-78
2022/08/09 03:31:42;;;;;;;3.60;3.13;;;;;;;;;;5095167;28;20449;-79
2022/08/09 03:34:09;;;;;;;3.27;2.97;;;;;;;;;;5095234;28;20417;-78
2022/08/09 03:36:36;;;;;;;5.53;3.13;;;;;;;;;;5093846;28;20436;-77
2022/08/09 03:39:05;;;;;;;3.70;3.40;;;;;;;;;;5096799;28;20418;-77
2022/08/09 03:41:32;;;;;;;3.83;3.37;;;;;;;;;;5096349;28;21005;-80
2022/08/09 03:44:00;;;;;;;4.17;3.17;;;;;;;;;;5092962;28;20435;-76
2022/08/09 03:46:28;;;;;;;4.73;3.07;;;;;;;;;;5091740;28;20455;-77
2022/08/09 03:48:58;;;;;;;4.30;3.30;;;;;;;;;;5093239;28;20548;-79
2022/08/09 03:51:26;;;;;;;3.70;3.30;;;;;;;;;;5093831;28;20425;-77
2022/08/09 03:53:54;;;;;;;5.50;3.10;;;;;;;;;;5093966;28;20448;-78
2022/08/09 03:56:21;;;;;;;5.10;3.60;;;;;;;;;;5094233;28;20793;-77
2022/08/09 03:58:48;;;;;;;3.20;2.90;;;;;;;;;;5092882;28;20420;-77
2022/08/09 04:01:17;;;;;;;4.23;3.40;;;;;;;;;;5075319;28;20416;-76
2022/08/09 04:03:44;;;;;;;4.00;3.37;;;;;;;;;;5075729;28;20421;-77
2022/08/09 04:06:11;;;;;;;3.40;3.10;;;;;;;;;;5087792;28;20976;-77
2022/08/09 04:08:39;;;;;;;3.97;3.50;;;;;;;;;;5091143;28;20461;-78
2022/08/09 04:11:09;;;;;;;3.87;3.30;;;;;;;;;;5092904;28;20776;-77
2022/08/09 04:13:36;;;;;;;5.43;3.20;;;;;;;;;;5093371;28;20418;-78
2022/08/09 04:16:03;;;;;;;3.43;3.13;;;;;;;;;;5093591;28;20522;-79
2022/08/09 04:18:31;;;;;;;3.53;3.13;;;;;;;;;;5093924;28;20811;-80
2022/08/09 04:20:59;;;;;;;5.90;3.73;;;;;;;;;;5092752;28;21030;-82
2022/08/09 04:23:26;;;;;;;4.67;4.10;;;;;;;;;;5095325;28;20777;-78
2022/08/09 04:25:53;;;;;;;6.10;3.80;;;;;;;;;;5095140;28;20873;-78
2022/08/09 04:28:21;;;;;;;4.43;3.20;;;;;;;;;;5092288;28;20842;-80
2022/08/09 04:30:48;;;;;;;4.20;3.80;;;;;;;;;;5090532;28;20443;-78
2022/08/09 04:33:15;;;;;;;3.77;3.47;;;;;;;;;;5092448;28;20799;-80
2022/08/09 04:35:44;;;;;;;4.53;3.57;;;;;;;;;;5092915;28;20520;-78
2022/08/09 04:38:11;;;;;;;5.83;3.53;;;;;;;;;;5092906;28;20504;-79
2022/08/09 04:43:19;;;;;;;4.97;3.00;;;;;;;;;;5091200;28;20401;-78
2022/08/09 04:45:47;;;;;;;3.47;3.00;;;;;;;;;;5094796;28;20899;-78
2022/08/09 04:48:14;;;;;;;4.00;3.23;;;;;;;;;;5095189;28;20474;-77
2022/08/09 04:50:41;;;;;;;5.17;4.10;;;;;;;;;;5091635;28;20416;-77
2022/08/09 04:53:10;;;;;;;5.27;4.20;;;;;;;;;;5090520;28;20413;-77
2022/08/09 04:55:38;;;;;;;3.87;3.43;;;;;;;;;;5092170;28;20461;-79
2022/08/09 04:58:05;;;;;;;4.67;3.80;;;;;;;;;;5091081;28;20441;-78
2022/08/09 05:00:33;;;;;;;3.30;3.00;;;;;;;;;;5091463;28;20857;-77
2022/08/09 05:03:01;;;;;;;6.40;3.33;;;;;;;;;;5093125;28;20477;-77
2022/08/09 05:05:28;;;;;;;4.37;3.40;;;;;;;;;;5092331;28;20442;-78
2022/08/09 05:07:55;;;;;;;4.00;3.10;;;;;;;;;;5093459;28;20848;-78
2022/08/09 05:10:24;;;;;;;3.73;3.30;;;;;;;;;;5094982;28;20420;-79
2022/08/09 05:12:51;;;;;;;3.67;3.33;;;;;;;;;;5091603;28;20416;-78
2022/08/09 05:15:18;;;;;;;3.87;3.17;;;;;;;;;;5089785;28;20439;-77
2022/08/09 05:17:46;;;;;;;4.20;3.50;;;;;;;;;;5091187;28;20547;-77
2022/08/09 05:20:13;;;;;;;3.90;3.50;;;;;;;;;;5092329;28;20433;-79
2022/08/09 05:22:40;;;;;;;4.77;3.60;;;;;;;;;;5092387;28;20446;-77
2022/08/09 05:25:07;;;;;;;8.53;3.50;;;;;;;;;;5091990;28;20463;-78
2022/08/09 05:27:36;;;;;;;5.27;3.40;;;;;;;;;;5091378;28;20459;-77
2022/08/09 05:30:03;;;;;;;3.43;3.13;;;;;;;;;;5091536;28;20439;-78
2022/08/09 05:32:31;;;;;;;3.87;3.20;;;;;;;;;;5089446;28;20435;-83
2022/08/09 05:34:58;;;;;;;5.93;3.37;;;;;;;;;;5089936;28;20450;-77
2022/08/09 05:37:25;;;;;;;3.70;3.10;;;;;;;;;;5091418;28;20459;-75
2022/08/09 05:39:52;;;;;;;3.77;3.13;;;;;;;;;;5091471;28;20439;-75
2022/08/09 05:42:19;;;;;;;6.03;3.10;;;;;;;;;;5091460;28;20443;-75
2022/08/09 05:44:48;;;;;;;4.13;2.67;;;;;;;;;;5091928;28;20929;-77
2022/08/09 05:47:15;;;;;;;3.60;3.30;;;;;;;;;;5090544;28;20480;-77
2022/08/09 05:49:42;;;;;;;11.10;3.80;;;;;;;;;;5093753;28;20566;-77
2022/08/09 05:52:09;;;;;;;3.93;3.00;;;;;;;;;;5092510;28;20438;-79
2022/08/09 05:54:37;;;;;;;3.93;2.90;;;;;;;;;;5089494;28;20438;-80
2022/08/09 05:57:04;;;;;;;4.27;3.03;;;;;;;;;;5089554;28;20455;-81
2022/08/09 05:59:31;;;;;;;5.53;3.10;;;;;;;;;;5090126;28;20453;-81
2022/08/09 06:02:00;;;;;;;4.63;3.10;;;;;;;;;;5091323;28;20438;-81
2022/08/09 06:04:27;;;;;;;4.17;2.80;;;;;;;;;;5091406;28;20440;-79
2022/08/09 06:06:54;;;;;;;3.93;2.87;;;;;;;;;;5091555;28;20554;-77
2022/08/09 06:09:22;;;;;;;4.10;3.27;;;;;;;;;;5091645;28;20482;-79
2022/08/09 06:11:49;;;;;;;6.63;2.80;;;;;;;;;;5093212;28;20439;-81
2022/08/09 06:14:16;;;;;;;7.83;3.50;;;;;;;;;;5093270;28;20767;-82
2022/08/09 06:16:44;;;;;;;5.20;3.10;;;;;;;;;;5088914;28;20459;-83
2022/08/09 06:19:13;;;;;;;7.13;3.60;;;;;;;;;;5089311;28;20442;-80
2022/08/09 06:21:40;;;;;;;4.90;3.30;;;;;;;;;;5090720;28;20447;-80
2022/08/09 06:24:08;;;;;;;4.87;2.60;;;;;;;;;;5090666;28;20750;-77
2022/08/09 06:26:37;;;;;;;5.30;3.17;;;;;;;;;;5091131;28;20518;-80
2022/08/09 06:29:04;;;;;;;5.00;2.73;;;;;;;;;;5091435;28;20470;-78
2022/08/09 06:31:31;;;;;;;3.20;2.90;;;;;;;;;;5090092;28;20465;-82
2022/08/09 06:33:58;;;;;;;3.50;2.90;;;;;;;;;;5093408;28;20443;-80
2022/08/09 06:36:27;;;;;;;3.63;3.10;;;;;;;;;;5093293;28;20467;-79
2022/08/09 06:38:54;;;;;;;4.53;2.50;;;;;;;;;;5089688;28;20956;-79
2022/08/09 06:41:21;;;;;;;3.60;3.30;;;;;;;;;;5088968;28;20443;-77
2022/08/09 06:43:49;;;;;;;3.13;2.83;;;;;;;;;;5090498;28;20885;-80
2022/08/09 06:46:16;;;;;;;3.43;2.60;;;;;;;;;;5089454;28;20459;-80
2022/08/09 06:48:43;;;;;;;3.30;2.50;;;;;;;;;;5090967;28;20482;-78
2022/08/09 06:51:11;;;;;;;3.10;2.40;;;;;;;;;;5091497;28;20887;-83
2022/08/09 06:53:40;;;;;;;4.70;3.13;;;;;;;;;;5090428;28;20865;-78
2022/08/09 06:56:07;;;;;;;2.97;2.60;;;;;;;;;;5093055;28;20468;-79
2022/08/09 06:58:35;;;;;;;3.47;3.10;;;;;;;;;;5093163;28;20467;-81
2022/08/09 07:01:02;;;;;;;2.87;2.60;;;;;;;;;;5089429;28;20539;-79
2022/08/09 07:03:29;;;;;;;3.10;2.80;;;;;;;;;;5088568;28;20445;-78
2022/08/09 07:05:57;;;;;;;6.13;3.30;;;;;;;;;;5090176;28;20878;-78
2022/08/09 07:08:24;;;;;;;6.83;3.57;;;;;;;;;;5090365;28;20474;-76
2022/08/09 07:10:53;;;;;;;3.53;2.60;;;;;;;;;;5093642;28;20527;-85
2022/08/09 07:13:20;;;;;;;5.00;2.93;;;;;;;;;;5095499;28;20811;-77
2022/08/09 07:15:47;;;;;;;3.70;2.67;;;;;;;;;;5094247;28;20443;-78
2022/08/09 07:18:15;;;;;;;3.90;2.93;;;;;;;;;;5096580;28;20536;-78
2022/08/09 07:20:42;;;;;;;4.03;2.90;;;;;;;;;;5096525;28;20443;-77
2022/08/09 07:23:09;;;;;;;4.13;2.90;;;;;;;;;;5093699;28;20437;-78
2022/08/09 07:25:36;;;;;;;3.43;2.73;;;;;;;;;;5091696;28;20467;-75
2022/08/09 07:28:05;;;;;;;3.90;2.37;;;;;;;;;;5093049;28;20538;-76
2022/08/09 07:30:32;;;;;;;3.00;2.63;;;;;;;;;;5093832;28;20541;-81
2022/08/09 07:32:59;;;;;;;2.80;2.23;;;;;;;;;;5093777;28;20435;-77
2022/08/09 07:35:27;;;;;;;5.20;2.60;;;;;;;;;;5094676;28;20478;-78
2022/08/09 07:37:54;;;;;;;3.87;2.87;;;;;;;;;;5093925;28;20952;-77
2022/08/09 07:40:21;;;;;;;3.20;2.70;;;;;;;;;;5095586;28;20884;-77
2022/08/09 07:42:50;;;;;;;3.20;2.90;;;;;;;;;;5095994;28;20526;-78
2022/08/09 07:45:24;;;;;;;2.90;2.67;;;;;;;;;;5093774;28;20442;-76
2022/08/09 07:47:51;;;;;;;3.00;2.63;;;;;;;;;;5091503;28;21110;-76
2022/08/09 07:50:18;;;;;;;5.83;2.60;;;;;;;;;;5092612;28;20474;-75
2022/08/09 07:52:45;;;;;;;3.50;2.80;;;;;;;;;;5093614;28;20457;-79
2022/08/09 07:55:13;;;;;;;3.33;2.77;;;;;;;;;;5093485;28;20443;-76
2022/08/09 07:57:40;;;;;;;2.90;2.70;;;;;;;;;;5093641;28;20972;-78
2022/08/09 08:00:08;;;;;;;3.40;3.10;;;;;;;;;;5093658;28;20454;-77
2022/08/09 08:02:36;;;;;;;3.30;2.80;;;;;;;;;;5093536;28;20459;-78
2022/08/09 08:05:03;;;;;;;2.87;2.57;;;;;;;;;;5095747;28;20504;-75
2022/08/09 08:07:31;;;;;;;3.47;2.50;;;;;;;;;;5094243;28;20469;-75
2022/08/09 08:09:58;;;;;;;4.93;2.93;;;;;;;;;;5091184;28;20467;-76
2022/08/09 08:12:25;;;;;;;4.30;2.77;;;;;;;;;;5091747;28;20874;-77
2022/08/09 08:14:52;;;;;;;3.53;2.60;;;;;;;;;;5093124;28;20439;-75
2022/08/09 08:17:19;;;;;;;3.77;2.60;;;;;;;;;;5093046;28;20469;-80
2022/08/09 08:19:48;;;;;;;5.10;3.20;;;;;;;;;;5093342;28;20434;-80
2022/08/09 08:22:15;;;;;;;5.17;3.20;;;;;;;;;;5092695;28;20439;-80
2022/08/09 08:24:42;;;;;;;5.77;3.40;;;;;;;;;;5093706;28;20470;-76
2022/08/09 08:27:10;;;;;;;4.00;2.90;;;;;;;;;;5095019;28;20558;-76
2022/08/09 08:29:37;;;;;;;4.20;2.90;;;;;;;;;;5094479;28;20467;-76
2022/08/09 08:32:04;;;;;;;6.27;3.53;;;;;;;;;;5090560;28;20435;-77
2022/08/09 08:34:31;;;;;;;6.30;2.80;;;;;;;;;;5091235;28;20445;-78
2022/08/09 08:37:00;;;;;;;4.60;3.33;;;;;;;;;;5092381;28;20462;-77
2022/08/09 08:39:27;;;;;;;5.50;3.33;;;;;;;;;;5092999;28;20439;-79
2022/08/09 08:41:55;;;;;;;8.30;3.30;;;;;;;;;;5092791;28;20439;-79
2022/08/09 08:44:22;;;;;;;5.03;3.30;;;;;;;;;;5093345;28;20465;-79
2022/08/09 08:46:50;;;;;;;5.20;2.90;;;;;;;;;;5093449;28;20571;-78
2022/08/09 08:49:18;;;;;;;4.43;3.10;;;;;;;;;;5095087;28;20479;-80
2022/08/09 08:51:45;;;;;;;3.43;3.07;;;;;;;;;;5094507;28;20443;-80
2022/08/09 08:54:13;;;;;;;4.67;3.17;;;;;;;;;;5089959;28;21141;-76
2022/08/09 08:56:42;;;;;;;4.80;3.20;;;;;;;;;;5090685;28;20455;-79
2022/08/09 08:59:10;;;;;;;5.17;3.10;;;;;;;;;;5091912;28;20451;-79
2022/08/09 09:01:39;;;;;;;3.83;3.30;;;;;;;;;;5092344;28;20859;-79
2022/08/09 09:04:09;;;;;;;5.30;3.00;;;;;;;;;;5092381;28;20459;-77
2022/08/09 09:06:37;;;;;;;2.73;2.53;;;;;;;;;;5092562;28;20726;-79
2022/08/09 09:09:05;;;;;;;4.70;3.47;;;;;;;;;;5091300;28;20481;-78
2022/08/09 09:11:34;;;;;;;6.83;3.27;;;;;;;;;;5094817;28;20436;-79
2022/08/09 09:14:04;;;;;;;3.40;2.77;;;;;;;;;;5094888;28;20443;-79
2022/08/09 09:16:32;;;;;;;6.43;3.67;;;;;;;;;;5090155;28;20462;-78
2022/08/09 09:19:00;;;;;;;3.93;3.20;;;;;;;;;;5089975;28;20424;-78
2022/08/09 09:21:27;;;;;;;4.27;2.50;;;;;;;;;;5091674;28;20536;-78
2022/08/09 09:23:54;;;;;;;3.43;2.83;;;;;;;;;;5091887;28;20530;-77
2022/08/09 09:26:23;;;;;;;4.97;3.57;;;;;;;;;;5091824;28;20545;-78
2022/08/09 09:28:52;;;;;;;4.83;3.43;;;;;;;;;;5092427;28;20808;-78
2022/08/09 09:31:21;;;;;;;6.27;3.40;;;;;;;;;;5091876;28;20464;-78
2022/08/09 09:33:48;;;;;;;4.80;2.63;;;;;;;;;;5093822;28;20637;-78
2022/08/09 09:36:15;;;;;;;4.17;2.83;;;;;;;;;;5094038;28;20457;-79
2022/08/09 09:38:45;;;;;;;4.17;3.43;;;;;;;;;;5090416;28;20527;-79
2022/08/09 09:41:12;;;;;;;4.57;2.97;;;;;;;;;;5088128;28;20443;-78
2022/08/09 09:43:39;;;;;;;5.90;3.37;;;;;;;;;;5090844;28;20465;-78
2022/08/09 09:46:08;;;;;;;5.03;3.17;;;;;;;;;;5091241;28;20470;-78
2022/08/09 09:48:35;;;;;;;5.47;3.73;;;;;;;;;;5091361;28;20445;-76
2022/08/09 09:51:02;;;;;;;3.83;3.13;;;;;;;;;;5092159;28;20471;-76
2022/08/09 09:53:29;;;;;;;3.13;2.83;;;;;;;;;;5091138;28;20446;-77
2022/08/09 09:55:58;;;;;;;3.83;2.70;;;;;;;;;;5093627;28;20443;-78
2022/08/09 09:58:26;;;;;;;4.67;3.23;;;;;;;;;;5093834;28;20447;-79
2022/08/09 10:00:54;;;;;;;4.30;3.00;;;;;;;;;;5090862;28;20435;-79
2022/08/09 10:03:36;;;;;;;6.07;3.27;;;;;;;;;;5087506;28;20450;-79
2022/08/09 10:06:05;;;;;;;3.97;3.07;;;;;;;;;;5090118;28;20455;-80
2022/08/09 10:08:32;;;;;;;3.13;2.83;;;;;;;;;;5091179;28;20439;-82
2022/08/09 10:10:59;;;;;;;3.60;2.90;;;;;;;;;;5091103;28;20522;-83
2022/08/09 10:13:37;;;;;;;4.93;3.33;;;;;;;;;;5091769;28;20542;-79
2022/08/09 10:16:04;;;;;;;3.60;2.67;;;;;;;;;;5090953;28;20588;-82
2022/08/09 10:18:31;;;;;;;4.43;3.40;;;;;;;;;;5093671;28;20473;-79
2022/08/09 10:21:07;;;;;;;9.27;3.60;;;;;;;;;;5093414;28;20435;-79
2022/08/09 10:23:34;;;;;;;4.93;3.30;;;;;;;;;;5090056;28;20442;-78
2022/08/09 10:26:02;;;;;;;3.10;2.80;;;;;;;;;;5088745;28;20790;-78
2022/08/09 10:28:30;;;;;;;4.80;3.20;;;;;;;;;;5091036;28;20774;-80
2022/08/09 10:30:57;;;;;;;4.47;3.50;;;;;;;;;;5089917;28;20478;-78
2022/08/09 10:33:25;;;;;;;3.23;2.83;;;;;;;;;;5091383;28;20443;-79
2022/08/09 10:35:52;;;;;;;2.90;2.60;;;;;;;;;;5087873;28;20454;-77
2022/08/09 10:38:21;;;;;;;3.33;3.03;;;;;;;;;;5087028;28;20447;-80
2022/08/09 10:40:48;;;;;;;6.10;3.37;;;;;;;;;;5086053;28;20455;-82
2022/08/09 10:43:15;;;;;;;3.20;2.90;;;;;;;;;;5085039;28;20435;-79
2022/08/09 10:45:43;;;;;;;3.67;2.70;;;;;;;;;;5089535;28;20448;-78
2022/08/09 10:48:13;;;;;;;4.27;3.27;;;;;;;;;;5089817;28;20687;-79
2022/08/09 10:53:37;;;;;;;3.40;3.10;;;;;;;;;;5091713;28;20463;-83
2022/08/09 10:56:19;;;;;;;3.13;2.83;;;;;;;;;;5091550;28;20474;-83
2022/08/09 10:58:46;;;;;;;3.90;3.50;;;;;;;;;;5092374;28;20496;-84
2022/08/09 11:01:28;;;;;;;3.63;3.23;;;;;;;;;;5091494;28;20466;-78
2022/08/09 11:04:10;;;;;;;4.03;2.83;;;;;;;;;;5088529;28;20431;-81
2022/08/09 11:06:38;;;;;;;4.17;3.33;;;;;;;;;;5088633;28;20459;-79
2022/08/09 11:09:07;;;;;;;3.97;2.77;;;;;;;;;;5090093;28;20846;-84
2022/08/09 11:11:49;;;;;;;4.07;2.83;;;;;;;;;;5090646;28;20859;-80
2022/08/09 11:14:32;;;;;;;2.80;2.60;;;;;;;;;;5090077;28;20447;-82
2022/08/09 11:17:00;;;;;;;5.90;3.03;;;;;;;;;;5090247;28;20463;-79
2022/08/09 11:19:42;;;;;;;4.70;3.40;;;;;;;;;;5091619;28;20978;-77
2022/08/09 11:22:09;;;;;;;8.77;3.70;;;;;;;;;;5093123;28;20438;-79
2022/08/09 11:24:51;;;;;;;7.30;3.50;;;;;;;;;;5090346;28;20473;-82
2022/08/09 11:27:34;;;;;;;4.70;3.03;;;;;;;;;;5087272;28;20466;-79
2022/08/09 11:30:03;;;;;;;4.50;3.10;;;;;;;;;;5088560;28;20466;-83
2022/08/09 11:32:45;;;;;;;4.40;3.40;;;;;;;;;;5090770;28;20530;-80
2022/08/09 11:35:15;;;;;;;4.67;3.13;;;;;;;;;;5091111;28;20538;-82
2022/08/09 11:37:43;;;;;;;3.10;2.90;;;;;;;;;;5091666;28;20952;-83
2022/08/09 11:40:11;;;;;;;6.33;3.03;;;;;;;;;;5091508;28;20438;-86
2022/08/09 11:42:39;;;;;;;3.80;2.80;;;;;;;;;;5096188;28;20488;-85
2022/08/09 11:45:18;;;;;;;5.20;3.13;;;;;;;;;;5096074;28;20439;-85
2022/08/09 11:47:46;;;;;;;3.10;2.87;;;;;;;;;;5092768;28;20816;-87
2022/08/09 11:50:13;;;;;;;4.47;3.30;;;;;;;;;;5091705;28;20456;-85
2022/08/09 11:52:55;;;;;;;3.67;3.00;;;;;;;;;;5093272;28;20445;-79
2022/08/09 11:55:30;;;;;;;5.40;3.40;;;;;;;;;;5092561;28;20445;-84
2022/08/09 11:57:57;;;;;;;3.40;3.10;;;;;;;;;;5093506;28;20461;-82
2022/08/09 12:00:26;;;;;;;3.37;2.97;;;;;;;;;;5094472;28;20431;-86
2022/08/09 12:02:54;;;;;;;3.07;2.77;;;;;;;;;;5092552;28;20467;-84
2022/08/09 12:05:21;;;;;;;3.67;3.00;;;;;;;;;;5095882;28;20443;-86
2022/08/09 12:07:48;;;;;;;4.07;2.97;;;;;;;;;;5095533;28;20466;-79
2022/08/09 12:10:16;;;;;;;3.00;2.70;;;;;;;;;;5091943;28;20846;-79
2022/08/09 12:12:45;;;;;;;4.50;2.87;;;;;;;;;;5091421;28;20471;-84
2022/08/09 12:15:27;;;;;;;3.80;2.50;;;;;;;;;;5092991;28;20443;-84
2022/08/09 12:17:56;;;;;;;2.80;2.60;;;;;;;;;;5092067;28;20542;-83
2022/08/09 12:20:24;;;;;;;3.20;2.90;;;;;;;;;;5093373;28;20515;-83
2022/08/09 12:22:53;;;;;;;4.00;2.80;;;;;;;;;;5098255;28;20473;-85
2022/08/09 12:25:20;;;;;;;3.30;3.00;;;;;;;;;;5095782;28;20899;-78
2022/08/09 12:27:48;;;;;;;3.70;2.70;;;;;;;;;;5097115;28;21047;-81
2022/08/09 12:30:15;;;;;;;2.67;2.47;;;;;;;;;;5095466;28;20926;-85
2022/08/09 12:32:42;;;;;;;5.87;3.10;;;;;;;;;;5091210;28;20920;-79
2022/08/09 12:35:11;;;;;;;3.47;2.87;;;;;;;;;;5090784;28;20872;-79
2022/08/09 12:37:39;;;;;;;6.20;3.00;;;;;;;;;;5072347;28;20489;-82
2022/08/09 12:40:08;;;;;;;4.47;3.60;;;;;;;;;;5072801;28;20440;-84
2022/08/09 12:42:36;;;;;;;3.90;3.00;;;;;;;;;;5071539;28;21014;-80
2022/08/09 12:45:03;;;;;;;3.13;2.83;;;;;;;;;;5073176;28;20813;-84
2022/08/09 12:47:30;;;;;;;4.37;3.37;;;;;;;;;;5072646;28;20555;-81
2022/08/09 12:52:41;;;;;;;9.80;3.53;;;;;;;;;;5078154;28;20473;-83
2022/08/09 12:55:09;;;;;;;3.23;2.93;;;;;;;;;;5090726;28;20432;-81
2022/08/09 12:57:39;;;;;;;5.67;3.00;;;;;;;;;;5090831;28;20537;-83
2022/08/09 13:00:16;;;;;;;4.03;3.13;;;;;;;;;;5092411;28;20439;-85
2022/08/09 13:02:52;;;;;;;3.10;2.80;;;;;;;;;;5091346;28;20442;-84
2022/08/09 13:05:20;;;;;;;4.57;3.30;;;;;;;;;;5092967;28;20984;-83
2022/08/09 13:08:02;;;;;;;4.57;3.20;;;;;;;;;;5092460;28;20467;-81
2022/08/09 13:10:30;;;;;;;3.73;3.10;;;;;;;;;;5093153;28;20566;-79
2022/08/09 13:12:59;;;;;;;3.50;2.97;;;;;;;;;;5094810;28;20526;-81
2022/08/09 13:15:26;;;;;;;4.20;2.77;;;;;;;;;;5092768;28;20439;-79
2022/08/09 13:17:53;;;;;;;5.70;3.27;;;;;;;;;;5089831;28;20574;-83
2022/08/09 13:20:32;;;;;;;3.80;3.17;;;;;;;;;;5091147;28;20538;-82
2022/08/09 13:23:00;;;;;;;5.20;2.90;;;;;;;;;;5092114;28;20538;-80
2022/08/09 13:25:37;;;;;;;8.40;3.23;;;;;;;;;;5091673;28;21019;-85
2022/08/09 13:28:11;;;;;;;6.83;3.07;;;;;;;;;;5092350;28;20490;-83
2022/08/09 13:30:38;;;;;;;3.00;2.70;;;;;;;;;;5092426;28;21015;-79
2022/08/09 13:33:05;;;;;;;3.10;2.90;;;;;;;;;;5093291;28;20797;-79
2022/08/09 13:35:33;;;;;;;3.20;2.60;;;;;;;;;;5093922;28;20446;-86
2022/08/09 13:38:00;;;;;;;2.70;2.50;;;;;;;;;;5091538;28;20968;-82
2022/08/09 13:40:27;;;;;;;3.40;3.10;;;;;;;;;;5089548;28;20428;-82
2022/08/09 13:42:55;;;;;;;3.90;2.70;;;;;;;;;;5090644;28;20486;-79
2022/08/09 13:45:23;;;;;;;3.20;2.50;;;;;;;;;;5091949;28;20816;-82
2022/08/09 13:47:50;;;;;;;2.60;2.40;;;;;;;;;;5092094;28;20464;-81
2022/08/09 13:50:19;;;;;;;2.63;2.43;;;;;;;;;;5091628;28;20435;-82
2022/08/09 13:52:46;;;;;;;3.53;2.60;;;;;;;;;;5091150;28;20790;-80
2022/08/09 13:55:13;;;;;;;4.00;2.30;;;;;;;;;;5092799;28;20509;-83
2022/08/09 13:57:41;;;;;;;3.00;2.40;;;;;;;;;;5093744;28;20463;-82
2022/08/09 14:00:11;;;;;;;5.00;2.73;;;;;;;;;;5091921;28;20846;-82
2022/08/09 14:02:40;;;;;;;3.33;3.03;;;;;;;;;;5089217;28;20441;-84
2022/08/09 14:05:07;;;;;;;2.83;2.47;;;;;;;;;;5090232;28;20943;-82
2022/08/09 14:07:35;;;;;;;3.17;2.67;;;;;;;;;;5091372;28;20461;-82
2022/08/09 14:10:02;;;;;;;2.80;2.30;;;;;;;;;;5091535;28;20439;-77
2022/08/09 14:12:29;;;;;;;4.20;2.63;;;;;;;;;;5091481;28;21008;-77
2022/08/09 14:14:56;;;;;;;3.37;2.83;;;;;;;;;;5091871;28;20447;-79
2022/08/09 14:17:23;;;;;;;2.50;2.20;;;;;;;;;;5092386;28;20550;-79
2022/08/09 14:19:54;;;;;;;5.20;3.13;;;;;;;;;;5094826;28;20446;-79
2022/08/09 14:22:21;;;;;;;4.30;2.27;;;;;;;;;;5096085;28;20916;-77
2022/08/09 14:24:48;;;;;;;4.80;2.70;;;;;;;;;;5092889;28;20999;-78
2022/08/09 14:27:15;;;;;;;2.83;2.53;;;;;;;;;;5093791;28;20555;-81
2022/08/09 14:29:42;;;;;;;4.53;2.90;;;;;;;;;;5095114;28;20535;-78
2022/08/09 14:32:10;;;;;;;4.63;2.93;;;;;;;;;;5095427;28;20485;-80
2022/08/09 14:34:37;;;;;;;3.50;2.63;;;;;;;;;;5095512;28;20442;-77
2022/08/09 14:37:06;;;;;;;3.13;2.80;;;;;;;;;;5095665;28;20816;-77
2022/08/09 14:39:33;;;;;;;3.00;2.50;;;;;;;;;;5094987;28;20558;-76
2022/08/09 14:42:01;;;;;;;3.10;2.80;;;;;;;;;;5097456;28;20449;-76
2022/08/09 14:44:28;;;;;;;2.63;2.43;;;;;;;;;;5095832;28;20435;-76
2022/08/09 14:46:55;;;;;;;3.27;2.73;;;;;;;;;;5092824;28;20458;-76
2022/08/09 14:49:23;;;;;;;3.17;2.87;;;;;;;;;;5093338;28;20613;-77
2022/08/09 14:51:51;;;;;;;3.50;2.30;;;;;;;;;;5093713;28;20485;-76
2022/08/09 14:54:19;;;;;;;3.80;2.77;;;;;;;;;;5094972;28;20439;-77
2022/08/09 14:56:46;;;;;;;3.37;2.37;;;;;;;;;;5094840;28;20473;-78
2022/08/09 14:59:14;;;;;;;3.50;2.23;;;;;;;;;;5095298;28;20439;-77